Time;durP1;ratioP1;P1;durP2;ratioP2;P2;SDS_P1;SDS_P2;PMS_P1;PMS_P2;Temp;Humidity;BMP_temperature;BMP_pressure;BME280_temperature;BME280_humidity;BME280_pressure;Samples;Min_cycle;Max_cycle;Signal;HPM_P1;HPM_P2
2022/09/22 00:04:59;;;;;;;13.13;7.03;;;;;7.10;101899.00;;;;13083927;22;20738;-76
2022/09/22 00:10:00;;;;;;;10.07;6.30;;;;;7.10;101896.00;;;;13013490;22;20412;-76
2022/09/22 00:15:02;;;;;;;10.30;6.23;;;;;7.00;101900.00;;;;13061930;22;20233;-76
2022/09/22 00:20:03;;;;;;;9.57;6.23;;;;;6.90;101904.00;;;;13013497;22;20210;-76
2022/09/22 00:25:07;;;;;;;9.03;6.40;;;;;6.90;101895.00;;;;13060626;22;20195;-76
2022/09/22 00:30:09;;;;;;;10.00;6.73;;;;;6.80;101892.00;;;;13067526;22;20231;-76
2022/09/22 00:35:10;;;;;;;14.60;7.57;;;;;6.80;101887.00;;;;13061604;22;20160;-76
2022/09/22 00:40:11;;;;;;;11.93;6.90;;;;;6.80;101875.00;;;;13016013;22;20236;-76
2022/09/22 00:45:13;;;;;;;7.60;6.43;;;;;6.70;101882.00;;;;13041490;22;20175;-76
2022/09/22 00:50:22;;;;;;;11.93;6.67;;;;;6.70;101876.00;;;;13017511;22;20313;-76
2022/09/22 00:55:29;;;;;;;8.83;5.97;;;;;6.60;101874.00;;;;13018302;22;20174;-76
2022/09/22 01:00:31;;;;;;;8.27;6.13;;;;;6.60;101872.00;;;;13039702;22;20263;-76
2022/09/22 01:05:34;;;;;;;11.80;6.87;;;;;6.60;101857.00;;;;13014926;22;20182;-76
2022/09/22 01:10:36;;;;;;;10.10;6.80;;;;;6.50;101855.00;;;;13089027;22;20479;-76
2022/09/22 01:15:52;;;;;;;9.00;7.27;;;;;6.50;101847.00;;;;13015952;22;20171;-76
2022/09/22 01:20:53;;;;;;;8.53;6.73;;;;;6.50;101851.00;;;;13041883;22;20233;-76
2022/09/22 01:26:37;;;;;;;9.07;6.70;;;;;6.50;101838.00;;;;13087427;22;20201;-76
2022/09/22 01:31:49;;;;;;;11.57;6.73;;;;;6.40;101850.00;;;;13016284;22;20618;-76
2022/09/22 01:37:15;;;;;;;11.23;6.80;;;;;6.40;101837.00;;;;13036586;22;20160;-76
2022/09/22 01:42:27;;;;;;;14.53;7.27;;;;;6.40;101834.00;;;;13087686;22;20179;-76
2022/09/22 01:47:39;;;;;;;9.43;7.67;;;;;6.30;101832.00;;;;13039400;22;20277;-76
2022/09/22 01:52:42;;;;;;;12.03;7.40;;;;;6.30;101825.00;;;;13062939;22;20243;-76
2022/09/22 01:57:57;;;;;;;13.40;6.97;;;;;6.20;101830.00;;;;13016224;22;20171;-76
2022/09/22 02:03:13;;;;;;;10.50;6.93;;;;;6.20;101827.00;;;;13116632;22;20158;-76
2022/09/22 02:08:26;;;;;;;10.93;7.33;;;;;6.10;101826.00;;;;13087846;22;20222;-76
2022/09/22 02:13:28;;;;;;;8.77;6.70;;;;;6.10;101818.00;;;;13087414;22;20169;-76
2022/09/22 02:18:46;;;;;;;12.53;7.30;;;;;6.00;101810.00;;;;13042133;22;20198;-76
2022/09/22 02:23:48;;;;;;;7.43;6.60;;;;;6.00;101811.00;;;;13040400;22;20194;-76
2022/09/22 02:29:03;;;;;;;11.70;7.20;;;;;6.00;101804.00;;;;13016561;22;20195;-76
2022/09/22 02:34:07;;;;;;;9.20;6.57;;;;;5.90;101797.00;;;;13060538;22;20678;-76
2022/09/22 02:39:13;;;;;;;8.83;6.80;;;;;5.90;101802.00;;;;13088743;22;20225;-76
2022/09/22 02:44:22;;;;;;;7.30;6.43;;;;;5.80;101791.00;;;;13061916;22;20156;-76
2022/09/22 02:49:25;;;;;;;9.17;5.90;;;;;5.70;101780.00;;;;13065275;22;20202;-76
2022/09/22 02:54:26;;;;;;;13.20;6.43;;;;;5.70;101789.00;;;;12991081;22;20175;-76
2022/09/22 02:59:28;;;;;;;7.37;6.50;;;;;5.70;101776.00;;;;13015031;22;20170;-76
2022/09/22 03:04:29;;;;;;;13.93;7.20;;;;;5.60;101779.00;;;;13066106;22;20172;-76
2022/09/22 03:09:30;;;;;;;7.57;6.47;;;;;5.60;101772.00;;;;13013634;22;20199;-76
2022/09/22 03:14:31;;;;;;;10.83;7.53;;;;;5.60;101772.00;;;;13062269;22;20163;-76
2022/09/22 03:19:32;;;;;;;9.57;6.50;;;;;5.60;101764.00;;;;13062044;22;20162;-76
2022/09/22 03:24:33;;;;;;;11.30;7.63;;;;;5.60;101768.00;;;;12989733;22;20206;-76
2022/09/22 03:29:35;;;;;;;11.83;6.77;;;;;5.50;101768.00;;;;13038270;22;20202;-76
2022/09/22 03:34:36;;;;;;;13.90;7.87;;;;;5.50;101767.00;;;;13013803;22;20182;-76
2022/09/22 03:39:37;;;;;;;10.80;6.83;;;;;5.40;101766.00;;;;12989134;22;20614;-76
2022/09/22 03:44:38;;;;;;;7.43;6.27;;;;;5.30;101767.00;;;;13065720;22;20167;-76
2022/09/22 03:49:39;;;;;;;8.57;6.27;;;;;5.30;101759.00;;;;13014154;22;20228;-76
2022/09/22 03:54:40;;;;;;;8.17;6.43;;;;;5.30;101757.00;;;;13087210;22;20171;-76
2022/09/22 03:59:42;;;;;;;11.43;7.20;;;;;5.30;101756.00;;;;13083406;22;20268;-76
2022/09/22 04:04:43;;;;;;;8.67;6.70;;;;;5.30;101747.00;;;;13062131;22;20159;-76
2022/09/22 04:09:44;;;;;;;8.50;6.47;;;;;5.20;101744.00;;;;13063654;22;20316;-76
2022/09/22 04:14:45;;;;;;;11.43;6.93;;;;;5.20;101745.00;;;;13017756;22;20250;-76
2022/09/22 04:19:46;;;;;;;10.90;7.07;;;;;5.10;101757.00;;;;13086726;22;20636;-76
2022/09/22 04:24:47;;;;;;;10.40;7.60;;;;;5.10;101752.00;;;;13090057;22;20177;-76
2022/09/22 04:29:49;;;;;;;13.30;8.30;;;;;5.20;101750.00;;;;13040991;22;20211;-76
2022/09/22 04:34:50;;;;;;;17.03;9.10;;;;;5.20;101749.00;;;;13013582;22;20168;-76
2022/09/22 04:39:53;;;;;;;13.40;9.27;;;;;5.10;101747.00;;;;13087309;22;20171;-75
2022/09/22 04:44:59;;;;;;;17.20;9.47;;;;;5.10;101741.00;;;;13011376;22;20228;-75
2022/09/22 04:50:00;;;;;;;13.03;9.47;;;;;5.10;101748.00;;;;13087486;22;20219;-75
2022/09/22 04:55:02;;;;;;;16.13;10.00;;;;;5.10;101737.00;;;;13035591;22;20560;-75
2022/09/22 05:00:04;;;;;;;14.20;10.40;;;;;5.10;101743.00;;;;13061662;22;20171;-75
2022/09/22 05:05:07;;;;;;;13.90;10.90;;;;;5.10;101746.00;;;;13065367;22;20167;-75
2022/09/22 05:10:10;;;;;;;13.63;10.83;;;;;5.00;101743.00;;;;13032443;22;20210;-75
2022/09/22 05:15:13;;;;;;;17.07;11.23;;;;;5.10;101753.00;;;;12993903;22;20233;-75
2022/09/22 05:20:14;;;;;;;15.27;11.73;;;;;5.00;101753.00;;;;13014508;22;20262;-75
2022/09/22 05:25:18;;;;;;;17.97;11.60;;;;;5.00;101760.00;;;;13089223;22;20238;-75
2022/09/22 05:30:21;;;;;;;19.63;13.60;;;;;5.00;101752.00;;;;13064205;22;20188;-75
2022/09/22 05:35:24;;;;;;;21.27;13.47;;;;;5.10;101747.00;;;;13059987;22;20164;-75
2022/09/22 05:40:25;;;;;;;19.40;13.67;;;;;5.10;101755.00;;;;13064241;22;20171;-75
2022/09/22 05:45:27;;;;;;;17.87;12.97;;;;;5.20;101763.00;;;;13037667;22;20172;-75
2022/09/22 05:50:28;;;;;;;22.07;13.80;;;;;5.30;101758.00;;;;13065992;22;20226;-75
2022/09/22 05:55:29;;;;;;;21.97;13.37;;;;;5.40;101766.00;;;;13086041;22;20266;-75
2022/09/22 06:00:31;;;;;;;22.30;14.97;;;;;5.50;101774.00;;;;13037521;22;20457;-75
2022/09/22 06:05:32;;;;;;;23.60;14.23;;;;;5.80;101763.00;;;;13084204;22;20268;-75
2022/09/22 06:10:38;;;;;;;21.73;14.57;;;;;6.20;101758.00;;;;13040821;22;20215;-75
2022/09/22 06:15:45;;;;;;;22.77;16.40;;;;;6.50;101774.00;;;;13066220;22;20167;-75
2022/09/22 06:20:46;;;;;;;30.70;18.73;;;;;6.80;101778.00;;;;13038594;22;20179;-75
2022/09/22 06:25:47;;;;;;;33.43;18.37;;;;;7.00;101767.00;;;;13005750;22;20225;-75
2022/09/22 06:30:50;;;;;;;22.07;16.33;;;;;7.20;101765.00;;;;13039380;22;20191;-75
2022/09/22 06:35:53;;;;;;;25.50;17.03;;;;;7.50;101771.00;;;;13034822;22;20234;-75
2022/09/22 06:41:00;;;;;;;26.77;18.80;;;;;7.80;101769.00;;;;13059810;22;20278;-75
2022/09/22 06:46:02;;;;;;;25.47;18.30;;;;;8.20;101761.00;;;;13065021;22;20186;-75
2022/09/22 06:51:04;;;;;;;24.80;17.87;;;;;8.60;101766.00;;;;12986867;22;20346;-75
2022/09/22 06:56:06;;;;;;;23.80;17.63;;;;;9.00;101759.00;;;;13084421;22;20225;-75
2022/09/22 07:01:07;;;;;;;21.33;16.40;;;;;9.40;101758.00;;;;13062367;22;20262;-75
2022/09/22 07:06:15;;;;;;;16.90;14.67;;;;;9.90;101764.00;;;;13011117;22;20937;-75
2022/09/22 07:11:23;;;;;;;16.50;13.97;;;;;10.30;101757.00;;;;13036881;22;20206;-75
2022/09/22 07:16:25;;;;;;;16.00;11.87;;;;;10.60;101756.00;;;;13010988;22;20179;-76
2022/09/22 07:21:35;;;;;;;15.00;11.87;;;;;10.80;101759.00;;;;13010027;22;20718;-75
2022/09/22 07:26:38;;;;;;;19.87;12.13;;;;;11.00;101761.00;;;;13030068;22;20571;-75
2022/09/22 07:31:40;;;;;;;16.63;13.00;;;;;11.20;101764.00;;;;13030180;22;20955;-75
2022/09/22 07:36:41;;;;;;;14.27;11.10;;;;;11.50;101767.00;;;;13056645;22;20167;-75
2022/09/22 07:41:43;;;;;;;14.60;9.90;;;;;11.70;101772.00;;;;13011378;22;20176;-75
2022/09/22 07:46:45;;;;;;;13.13;9.13;;;;;12.10;101774.00;;;;13055839;22;20185;-75
2022/09/22 07:51:48;;;;;;;11.27;9.40;;;;;12.40;101770.00;;;;13031253;22;20179;-75
2022/09/22 07:57:01;;;;;;;11.43;10.00;;;;;12.80;101763.00;;;;13037405;22;20206;-76
2022/09/22 08:02:02;;;;;;;8.37;7.47;;;;;13.20;101759.00;;;;13063250;22;20176;-75
2022/09/22 08:07:03;;;;;;;11.37;6.70;;;;;13.50;101760.00;;;;13084153;22;20187;-75
2022/09/22 08:12:04;;;;;;;8.20;5.67;;;;;13.90;101752.00;;;;13010393;22;20580;-75
2022/09/22 08:17:11;;;;;;;6.67;5.87;;;;;14.30;101757.00;;;;13085670;22;20163;-75
2022/09/22 08:22:12;;;;;;;9.97;4.67;;;;;14.70;101756.00;;;;13017449;22;20172;-75
2022/09/22 08:27:13;;;;;;;6.33;4.13;;;;;15.10;101759.00;;;;13084647;22;20262;-76
2022/09/22 08:32:17;;;;;;;4.40;3.70;;;;;15.50;101762.00;;;;13059318;22;20648;-76
2022/09/22 08:37:19;;;;;;;6.63;3.80;;;;;15.80;101757.00;;;;13012203;22;20168;-76
2022/09/22 08:42:22;;;;;;;3.60;3.00;;;;;16.40;101762.00;;;;13033552;22;20168;-76
2022/09/22 08:53:14;;;;;;;13.65;3.70;;;;;17.60;101766.00;;;;13062706;22;20167;-77
2022/09/22 08:58:40;;;;;;;7.00;3.10;;;;;18.10;101770.00;;;;13015662;22;20638;-77
2022/09/22 09:04:02;;;;;;;5.93;2.50;;;;;18.50;101760.00;;;;13085508;22;20189;-77
2022/09/22 09:09:31;;;;;;;5.18;2.20;;;;;19.00;101755.00;;;;13061416;22;20652;-77
2022/09/22 09:14:41;;;;;;;4.45;2.45;;;;;19.30;101757.00;;;;13033649;22;20160;-76
2022/09/22 09:19:46;;;;;;;2.83;1.70;;;;;19.60;101761.00;;;;13114618;22;20220;-76
2022/09/22 09:24:53;;;;;;;7.53;2.40;;;;;20.00;101747.00;;;;13058250;22;20163;-77
2022/09/22 09:30:17;;;;;;;6.50;2.20;;;;;20.30;101746.00;;;;13084938;22;20961;-77
2022/09/22 09:35:33;;;;;;;5.80;1.85;;;;;20.70;101750.00;;;;13040189;22;20691;-77
2022/09/22 09:40:39;;;;;;;4.50;2.00;;;;;21.00;101751.00;;;;13086548;22;20175;-77
2022/09/22 09:46:11;;;;;;;9.70;3.00;;;;;21.20;101746.00;;;;13012497;22;20229;-77
2022/09/22 09:51:13;;;;;;;3.72;1.98;;;;;21.10;101749.00;;;;13040441;22;20578;-77
2022/09/22 09:56:25;;;;;;;1.40;1.30;;;;;21.30;101746.00;;;;13060736;22;20160;-77
2022/09/22 10:01:26;;;;;;;2.97;1.85;;;;;21.70;101746.00;;;;13060184;22;20360;-77
2022/09/22 10:06:27;;;;;;;3.72;1.98;;;;;21.90;101731.00;;;;13113844;22;20183;-77
2022/09/22 10:11:30;;;;;;;4.55;1.45;;;;;22.00;101730.00;;;;13039294;22;20249;-77
2022/09/22 10:16:34;;;;;;;2.25;1.42;;;;;22.40;101723.00;;;;13034992;22;20358;-77
2022/09/22 10:21:36;;;;;;;2.75;1.17;;;;;22.90;101721.00;;;;13086996;22;20491;-77
2022/09/22 10:26:54;;;;;;;1.35;0.90;;;;;23.10;101717.00;;;;13117942;22;20261;-77
2022/09/22 10:32:15;;;;;;;1.50;0.90;;;;;23.40;101711.00;;;;13015327;22;20527;-76
2022/09/22 10:37:22;;;;;;;2.55;1.08;;;;;23.40;101702.00;;;;13090216;22;20498;-77
2022/09/22 10:42:26;;;;;;;1.42;1.15;;;;;23.10;101701.00;;;;13093090;22;20247;-77
2022/09/22 10:47:57;;;;;;;3.35;1.00;;;;;22.80;101696.00;;;;13062586;22;20251;-77
2022/09/22 10:53:30;;;;;;;1.58;1.00;;;;;22.80;101694.00;;;;13090103;22;21003;-77
2022/09/22 10:58:50;;;;;;;1.40;1.00;;;;;23.20;101678.00;;;;13090522;22;20186;-77
2022/09/22 11:04:17;;;;;;;1.73;1.05;;;;;23.30;101673.00;;;;13118821;22;20164;-77
2022/09/22 11:15:20;;;;;;;1.00;0.90;;;;;23.90;101665.00;;;;13067787;22;20511;-77
2022/09/22 11:20:22;;;;;;;1.88;0.80;;;;;24.10;101658.00;;;;13016301;22;20179;-77
2022/09/22 11:25:45;;;;;;;2.40;1.00;;;;;23.80;101656.00;;;;13019280;22;20183;-77
2022/09/22 11:30:51;;;;;;;2.72;1.00;;;;;23.90;101655.00;;;;13091410;22;20199;-76
2022/09/22 11:36:19;;;;;;;6.38;1.10;;;;;24.10;101648.00;;;;13060636;22;20680;-77
2022/09/22 11:41:30;;;;;;;72.05;8.90;;;;;24.50;101646.00;;;;13086287;22;20163;-77
2022/09/22 11:46:59;;;;;;;9.55;1.88;;;;;24.50;101636.00;;;;13106959;22;20179;-77
2022/09/22 11:52:41;;;;;;;2.47;0.85;;;;;24.80;101630.00;;;;13035490;22;20700;-77
2022/09/22 11:57:49;;;;;;;2.40;0.85;;;;;24.90;101623.00;;;;13058118;22;20163;-77
2022/09/22 12:03:13;;;;;;;1.30;1.10;;;;;24.90;101613.00;;;;13011271;22;20368;-77
2022/09/22 12:08:21;;;;;;;2.55;1.00;;;;;25.00;101603.00;;;;13083586;22;20179;-77
2022/09/22 12:13:28;;;;;;;4.07;0.90;;;;;25.00;101593.00;;;;13083274;22;20163;-77
2022/09/22 12:18:48;;;;;;;2.50;0.90;;;;;25.20;101587.00;;;;13038181;22;20488;-77
2022/09/22 12:23:51;;;;;;;2.65;1.00;;;;;25.20;101574.00;;;;13112921;22;20159;-77
2022/09/22 12:28:53;;;;;;;1.52;0.68;;;;;25.00;101570.00;;;;13037682;22;20195;-77
2022/09/22 12:33:55;;;;;;;1.65;1.00;;;;;25.00;101573.00;;;;13087535;22;20175;-77
2022/09/22 12:39:12;;;;;;;1.65;0.95;;;;;24.80;101575.00;;;;13087138;22;20247;-77
2022/09/22 12:44:39;;;;;;;1.20;0.77;;;;;24.90;101559.00;;;;13013763;22;20506;-77
2022/09/22 12:49:54;;;;;;;10.18;1.52;;;;;25.00;101559.00;;;;13024045;22;20835;-77
2022/09/22 12:55:27;;;;;;;3.70;0.70;;;;;25.20;101552.00;;;;13086287;22;20473;-77
2022/09/22 13:00:51;;;;;;;1.58;0.90;;;;;25.10;101550.00;;;;13086833;22;20238;-77
2022/09/22 13:06:01;;;;;;;1.80;0.80;;;;;24.60;101542.00;;;;13012798;22;20167;-77
2022/09/22 13:11:03;;;;;;;2.35;1.23;;;;;24.70;101530.00;;;;13036020;22;20285;-77
2022/09/22 13:16:14;;;;;;;0.82;0.60;;;;;25.00;101515.00;;;;13115025;22;20652;-77
2022/09/22 13:21:17;;;;;;;1.42;0.75;;;;;25.40;101522.00;;;;13061694;22;20164;-77
2022/09/22 13:26:21;;;;;;;1.27;0.80;;;;;25.80;101512.00;;;;13110875;22;20209;-77
2022/09/22 13:31:22;;;;;;;0.68;0.63;;;;;26.10;101511.00;;;;13058209;22;20266;-77
2022/09/22 13:36:26;;;;;;;1.42;1.00;;;;;26.90;101498.00;;;;13035770;22;20175;-77
2022/09/22 13:41:32;;;;;;;2.28;1.00;;;;;27.50;101496.00;;;;13060783;22;20243;-77
2022/09/22 13:46:40;;;;;;;2.85;0.90;;;;;28.30;101490.00;;;;13033542;22;20160;-77
2022/09/22 13:51:41;;;;;;;3.42;0.80;;;;;28.10;101492.00;;;;13014244;22;20176;-76
2022/09/22 13:56:44;;;;;;;0.95;0.88;;;;;28.10;101475.00;;;;13085651;22;20163;-77
2022/09/22 14:01:50;;;;;;;5.88;0.95;;;;;28.50;101466.00;;;;13064050;22;20220;-76
2022/09/22 14:07:01;;;;;;;1.67;0.90;;;;;29.20;101453.00;;;;13085101;22;20186;-77
2022/09/22 14:12:05;;;;;;;2.83;1.00;;;;;27.20;101465.00;;;;13086198;22;20321;-77
2022/09/22 14:17:18;;;;;;;1.75;1.08;;;;;25.10;101454.00;;;;13085469;22;20680;-76
2022/09/22 14:22:22;;;;;;;1.10;0.80;;;;;23.60;101453.00;;;;13085399;22;20615;-76
2022/09/22 14:27:30;;;;;;;1.58;0.75;;;;;22.60;101434.00;;;;13110682;22;20499;-76
2022/09/22 14:32:39;;;;;;;5.05;0.88;;;;;21.40;101448.00;;;;13085437;22;20166;-76
2022/09/22 14:37:44;;;;;;;2.70;0.90;;;;;20.80;101438.00;;;;13086568;22;20641;-75
2022/09/22 14:42:55;;;;;;;0.50;0.50;;;;;20.40;101432.00;;;;13062292;22;20246;-75
2022/09/22 14:48:30;;;;;;;2.55;1.20;;;;;20.00;101425.00;;;;13011428;22;20188;-75
2022/09/22 14:53:36;;;;;;;1.00;0.70;;;;;19.80;101416.00;;;;13096446;22;20639;-75
2022/09/22 14:58:40;;;;;;;1.02;0.68;;;;;19.60;101420.00;;;;13037148;22;20540;-75
2022/09/22 15:03:51;;;;;;;2.72;0.77;;;;;19.50;101419.00;;;;13060837;22;20167;-75
2022/09/22 15:08:52;;;;;;;1.40;0.95;;;;;19.50;101409.00;;;;13030544;22;20187;-75
2022/09/22 15:13:53;;;;;;;2.08;0.70;;;;;19.50;101417.00;;;;13057600;22;20175;-75
2022/09/22 15:18:55;;;;;;;0.98;0.70;;;;;19.50;101411.00;;;;13027872;22;20160;-75
2022/09/22 15:23:58;;;;;;;0.98;0.82;;;;;19.30;101417.00;;;;13059745;22;20228;-75
2022/09/22 15:29:00;;;;;;;2.58;0.93;;;;;19.30;101412.00;;;;13062118;22;20191;-75
2022/09/22 15:34:02;;;;;;;3.97;1.20;;;;;19.20;101410.00;;;;13061560;22;20179;-75
2022/09/22 15:39:20;;;;;;;0.77;0.70;;;;;19.10;101410.00;;;;13055105;22;20536;-74
2022/09/22 15:44:22;;;;;;;1.48;0.60;;;;;18.90;101395.00;;;;13035803;22;20657;-74
2022/09/22 15:49:25;;;;;;;2.90;0.90;;;;;18.80;101397.00;;;;13084689;22;20797;-75
2022/09/22 15:54:28;;;;;;;4.03;2.03;;;;;18.70;101398.00;;;;13036513;22;20174;-74
2022/09/22 15:59:31;;;;;;;1.95;1.20;;;;;18.70;101404.00;;;;13061323;22;20250;-75
2022/09/22 16:04:33;;;;;;;2.13;0.90;;;;;18.50;101407.00;;;;13088443;22;20166;-75
2022/09/22 16:09:34;;;;;;;0.75;0.73;;;;;18.30;101404.00;;;;13085811;22;20274;-74
2022/09/22 16:14:38;;;;;;;2.25;0.80;;;;;18.00;101396.00;;;;13084845;22;20873;-75
2022/09/22 16:19:39;;;;;;;2.88;0.98;;;;;17.80;101396.00;;;;13038922;22;20167;-74
2022/09/22 16:24:42;;;;;;;0.77;0.73;;;;;17.60;101387.00;;;;13010938;22;20164;-74
2022/09/22 16:29:43;;;;;;;1.95;0.60;;;;;17.40;101378.00;;;;13059407;22;20187;-75
2022/09/22 16:34:44;;;;;;;1.48;0.80;;;;;17.30;101376.00;;;;13058047;22;20735;-75
2022/09/22 16:39:49;;;;;;;4.38;1.33;;;;;17.10;101374.00;;;;13087568;22;20175;-74
2022/09/22 16:44:50;;;;;;;2.40;1.00;;;;;17.00;101369.00;;;;13064848;22;20171;-75
2022/09/22 16:49:53;;;;;;;3.55;1.27;;;;;16.90;101370.00;;;;13062468;22;20183;-74
2022/09/22 16:54:54;;;;;;;2.10;1.30;;;;;16.70;101367.00;;;;13013310;22;21034;-75
2022/09/22 16:59:55;;;;;;;2.15;0.95;;;;;16.50;101365.00;;;;13014397;22;20176;-75
2022/09/22 17:04:57;;;;;;;3.45;0.90;;;;;16.30;101369.00;;;;13012268;22;20281;-74
2022/09/22 17:09:59;;;;;;;3.97;0.98;;;;;16.00;101367.00;;;;13040073;22;20195;-74
2022/09/22 17:15:00;;;;;;;1.88;1.30;;;;;15.90;101362.00;;;;13112106;22;20192;-74
2022/09/22 17:20:02;;;;;;;4.35;1.50;;;;;15.60;101363.00;;;;13057139;22;20171;-74
2022/09/22 17:25:04;;;;;;;4.35;1.83;;;;;15.40;101361.00;;;;13085313;22;20164;-74
2022/09/22 17:30:06;;;;;;;2.70;1.77;;;;;15.30;101362.00;;;;13063059;22;20196;-74
2022/09/22 17:35:10;;;;;;;4.70;2.58;;;;;15.30;101352.00;;;;13062530;22;20833;-74
2022/09/22 17:40:11;;;;;;;5.90;2.28;;;;;15.30;101355.00;;;;13061253;22;20191;-74
2022/09/22 17:45:13;;;;;;;5.67;2.23;;;;;15.30;101358.00;;;;13011753;22;20186;-74
2022/09/22 17:55:34;;;;;;;5.57;1.97;;;;;15.20;101352.00;;;;13085240;22;20225;-75
2022/09/22 18:00:35;;;;;;;5.37;1.80;;;;;15.10;101361.00;;;;13010938;22;20179;-74
2022/09/22 18:05:37;;;;;;;4.13;2.00;;;;;14.90;101357.00;;;;13084599;22;20266;-74
2022/09/22 18:10:38;;;;;;;5.73;1.80;;;;;14.80;101362.00;;;;13037754;22;20195;-75
2022/09/22 18:15:40;;;;;;;4.90;1.90;;;;;14.40;101349.00;;;;13061588;22;20171;-74
2022/09/22 18:20:41;;;;;;;4.20;1.97;;;;;14.20;101348.00;;;;13059888;22;20246;-74
2022/09/22 18:25:42;;;;;;;5.33;2.40;;;;;14.00;101345.00;;;;13036885;22;20248;-74
2022/09/22 18:30:44;;;;;;;5.17;2.77;;;;;13.80;101349.00;;;;13011104;22;20292;-74
2022/09/22 18:35:46;;;;;;;3.23;1.97;;;;;13.60;101345.00;;;;13029744;22;20625;-75
2022/09/22 18:40:50;;;;;;;3.17;1.83;;;;;13.40;101358.00;;;;13007311;22;20210;-74
2022/09/22 18:45:51;;;;;;;4.20;2.20;;;;;13.20;101357.00;;;;13079435;22;20202;-74
2022/09/22 18:50:53;;;;;;;5.20;1.43;;;;;13.00;101368.00;;;;13110366;22;20179;-74
2022/09/22 18:55:54;;;;;;;3.80;2.03;;;;;12.90;101365.00;;;;13060963;22;20254;-74
2022/09/22 19:00:55;;;;;;;6.50;2.00;;;;;12.70;101369.00;;;;13010005;22;20206;-74
2022/09/22 19:05:56;;;;;;;3.10;1.97;;;;;12.60;101363.00;;;;13010496;22;20167;-74
2022/09/22 19:10:58;;;;;;;3.03;1.90;;;;;12.50;101357.00;;;;13057687;22;20199;-74
2022/09/22 19:16:01;;;;;;;3.77;2.60;;;;;12.40;101367.00;;;;13058610;22;20178;-74
2022/09/22 19:21:02;;;;;;;4.80;2.80;;;;;12.30;101368.00;;;;13034586;22;20175;-75
2022/09/22 19:26:04;;;;;;;7.13;2.77;;;;;12.20;101373.00;;;;13082403;22;20186;-75
2022/09/22 19:31:05;;;;;;;9.47;6.37;;;;;12.10;101373.00;;;;13081636;22;20248;-75
2022/09/22 19:36:07;;;;;;;8.23;6.87;;;;;12.00;101368.00;;;;13054236;22;20163;-75
2022/09/22 19:41:08;;;;;;;10.30;7.70;;;;;11.90;101369.00;;;;13086756;22;20172;-74
2022/09/22 19:46:09;;;;;;;8.10;5.70;;;;;11.90;101374.00;;;;13058302;22;20172;-75
2022/09/22 19:51:10;;;;;;;6.97;5.40;;;;;11.80;101373.00;;;;13079245;22;20187;-74
2022/09/22 19:56:11;;;;;;;6.23;4.80;;;;;11.70;101373.00;;;;13035426;22;20933;-75
2022/09/22 20:01:42;;;;;;;7.50;4.37;;;;;11.60;101371.00;;;;13037545;22;20183;-75
2022/09/22 20:06:44;;;;;;;5.83;4.17;;;;;11.60;101360.00;;;;13056505;22;20221;-75
2022/09/22 20:11:48;;;;;;;8.73;5.20;;;;;11.50;101358.00;;;;13035727;22;20275;-75
2022/09/22 20:16:59;;;;;;;8.23;5.37;;;;;11.40;101352.00;;;;13036619;22;20172;-75
2022/09/22 20:22:27;;;;;;;7.77;4.53;;;;;11.30;101356.00;;;;13009934;22;20507;-75
2022/09/22 20:27:35;;;;;;;7.27;5.53;;;;;11.30;101352.00;;;;13030418;22;20252;-74
2022/09/22 20:32:36;;;;;;;6.97;4.20;;;;;11.20;101349.00;;;;13057388;22;20163;-74
2022/09/22 20:37:39;;;;;;;5.07;3.77;;;;;11.10;101356.00;;;;13007321;22;20180;-75
2022/09/22 20:42:40;;;;;;;6.23;3.80;;;;;11.00;101348.00;;;;13106697;22;20164;-75
2022/09/22 20:47:41;;;;;;;9.53;4.37;;;;;10.90;101346.00;;;;13009702;22;20666;-74
2022/09/22 20:52:43;;;;;;;6.83;3.87;;;;;10.80;101343.00;;;;13034284;22;20210;-74
2022/09/22 20:57:44;;;;;;;7.67;3.83;;;;;10.70;101344.00;;;;13061290;22;20162;-74
2022/09/22 21:02:46;;;;;;;8.57;4.43;;;;;10.60;101340.00;;;;13014444;22;20251;-74
2022/09/22 21:10:33;;;;;;;11.53;4.57;;;;;10.60;101342.00;;;;13086046;22;20191;-74
2022/09/22 21:13:08;;;;;;;7.63;4.10;;;;;10.50;101336.00;;;;13040828;22;20493;-74
2022/09/22 21:18:09;;;;;;;7.27;4.33;;;;;10.40;101339.00;;;;13086889;22;20219;-74
2022/09/22 21:23:10;;;;;;;9.43;4.00;;;;;10.30;101320.00;;;;13062475;22;20175;-74
2022/09/22 21:28:11;;;;;;;7.40;4.80;;;;;10.30;101324.00;;;;13040721;22;20192;-74
2022/09/22 21:33:13;;;;;;;9.33;4.73;;;;;10.20;101323.00;;;;13015204;22;20675;-74
2022/09/22 21:38:15;;;;;;;7.83;5.20;;;;;10.10;101322.00;;;;13061631;22;20167;-74
2022/09/22 21:43:18;;;;;;;7.40;4.77;;;;;10.00;101321.00;;;;12989467;22;20262;-74
2022/09/22 21:48:19;;;;;;;7.20;4.70;;;;;10.00;101327.00;;;;13037840;22;20248;-74
2022/09/22 21:53:21;;;;;;;6.47;4.47;;;;;10.10;101310.00;;;;13061808;22;20167;-74
2022/09/22 21:58:23;;;;;;;8.33;4.30;;;;;10.10;101305.00;;;;13014383;22;20186;-74
2022/09/22 22:03:30;;;;;;;9.53;4.43;;;;;10.10;101304.00;;;;13065885;22;20237;-74
2022/09/22 22:08:38;;;;;;;4.77;3.93;;;;;10.20;101308.00;;;;13087657;22;20199;-74
2022/09/22 22:13:41;;;;;;;6.20;4.07;;;;;10.20;101310.00;;;;13040669;22;20171;-74
2022/09/22 22:18:42;;;;;;;5.50;4.17;;;;;10.10;101306.00;;;;13013569;22;20167;-74
2022/09/22 22:23:45;;;;;;;5.80;3.63;;;;;10.00;101304.00;;;;13065260;22;20178;-74
2022/09/22 22:28:48;;;;;;;10.63;4.30;;;;;9.90;101293.00;;;;13015247;22;20195;-74
2022/09/22 22:33:49;;;;;;;6.93;4.20;;;;;9.90;101299.00;;;;13061398;22;20171;-74
2022/09/22 22:38:51;;;;;;;6.70;4.00;;;;;9.80;101293.00;;;;13066135;22;20546;-74
2022/09/22 22:43:53;;;;;;;7.97;3.80;;;;;9.70;101288.00;;;;13013547;22;20262;-74
2022/09/22 22:48:55;;;;;;;6.17;4.13;;;;;9.70;101282.00;;;;13087108;22;20187;-74
2022/09/22 22:53:56;;;;;;;4.97;3.90;;;;;9.60;101286.00;;;;13036466;22;20327;-74
2022/09/22 22:58:58;;;;;;;5.00;3.93;;;;;9.60;101290.00;;;;13054747;22;20223;-74
2022/09/22 23:04:02;;;;;;;6.10;3.33;;;;;9.50;101279.00;;;;13014264;22;20179;-74
2022/09/22 23:09:05;;;;;;;5.60;3.57;;;;;9.50;101281.00;;;;13059096;22;20838;-74
2022/09/22 23:14:10;;;;;;;6.20;3.67;;;;;9.60;101279.00;;;;13059801;22;20267;-74
2022/09/22 23:19:14;;;;;;;3.80;3.00;;;;;9.50;101274.00;;;;13013933;22;20266;-74
2022/09/22 23:24:17;;;;;;;4.20;3.70;;;;;9.50;101264.00;;;;13085666;22;20195;-74
2022/09/22 23:29:18;;;;;;;6.97;4.53;;;;;9.50;101262.00;;;;13038527;22;20187;-74
2022/09/22 23:34:20;;;;;;;7.93;3.90;;;;;9.40;101258.00;;;;13014002;22;20167;-74
2022/09/22 23:39:22;;;;;;;6.57;3.90;;;;;9.40;101252.00;;;;13113122;22;20722;-74
2022/09/22 23:44:23;;;;;;;7.83;4.27;;;;;9.30;101237.00;;;;13086894;22;20163;-74
2022/09/22 23:49:24;;;;;;;8.07;4.10;;;;;9.20;101240.00;;;;13086319;22;20183;-74
2022/09/22 23:54:25;;;;;;;5.57;3.43;;;;;9.20;101240.00;;;;13035158;22;20164;-74
2022/09/22 23:59:27;;;;;;;4.67;3.60;;;;;9.10;101241.00;;;;13061016;22;20163;-74
